createdAt,value
2023-02-06T00:11:19.077Z,4.90
2023-02-06T00:13:46.612Z,4.90
2023-02-06T00:16:24.512Z,4.80
2023-02-06T00:18:51.825Z,4.80
2023-02-06T00:21:21.872Z,4.70
2023-02-06T00:23:49.378Z,4.60
2023-02-06T00:45:57.519Z,4.50
2023-02-06T00:48:25.664Z,4.50
2023-02-06T00:50:53.608Z,4.50
2023-02-06T01:00:43.747Z,7.70
2023-02-06T01:08:05.086Z,4.20
2023-02-06T01:22:49.655Z,3.90
2023-02-06T01:32:42.095Z,3.80
2023-02-06T01:35:10.727Z,3.60
2023-02-06T01:37:38.954Z,3.60
2023-02-06T01:40:08.931Z,3.50
2023-02-06T01:42:36.592Z,3.60
2023-02-06T01:45:39.741Z,3.60
2023-02-06T01:48:10.908Z,3.60
2023-02-06T01:50:41.450Z,3.60
2023-02-06T01:55:39.857Z,3.70
2023-02-06T01:58:09.054Z,3.70
2023-02-06T02:03:04.570Z,3.60
2023-02-06T02:05:33.315Z,3.70
2023-02-06T02:08:07.393Z,3.80
2023-02-06T02:10:35.222Z,3.70
2023-02-06T02:15:53.713Z,3.80
2023-02-06T02:18:26.341Z,3.80
2023-02-06T02:21:13.203Z,3.90
2023-02-06T02:24:13.420Z,3.90
2023-02-06T02:27:05.745Z,3.90
2023-02-06T02:29:41.270Z,3.90
2023-02-06T02:32:39.580Z,4.00
2023-02-06T02:35:13.595Z,4.00
2023-02-06T02:37:51.551Z,4.00
2023-02-06T02:40:45.754Z,4.00
2023-02-06T02:43:43.899Z,3.90
2023-02-06T02:48:41.993Z,3.90
2023-02-06T02:51:10.608Z,3.90
2023-02-06T02:56:19.859Z,4.00
2023-02-06T02:58:53.418Z,4.00
2023-02-06T03:01:31.974Z,4.00
2023-02-06T03:04:08.577Z,4.10
2023-02-06T03:06:56.683Z,4.10
2023-02-06T03:09:47.628Z,4.20
2023-02-06T03:12:32.832Z,4.10
2023-02-06T03:15:17.743Z,4.30
2023-02-06T03:18:09.465Z,4.30
2023-02-06T03:20:42.013Z,4.30
2023-02-06T03:23:10.912Z,4.40
2023-02-06T03:25:41.501Z,4.30
2023-02-06T03:28:16.020Z,0.70
2023-02-06T03:33:15.567Z,4.40
2023-02-06T03:40:39.346Z,4.40
2023-02-06T03:45:40.013Z,4.40
2023-02-06T03:48:11.537Z,4.40
2023-02-06T03:50:41.680Z,1.30
2023-02-06T03:53:10.199Z,4.40
2023-02-06T03:58:08.812Z,4.40
2023-02-06T04:00:38.017Z,4.40
2023-02-06T04:05:32.107Z,4.20
2023-02-06T04:17:59.361Z,4.40
2023-02-06T04:20:27.569Z,4.40
2023-02-06T04:25:21.767Z,4.40
2023-02-06T04:32:44.157Z,4.20
2023-02-06T04:47:26.377Z,4.10
2023-02-06T05:14:26.398Z,3.80
2023-02-06T06:10:51.766Z,3.80
2023-02-06T06:25:35.630Z,3.70
2023-02-06T06:28:02.968Z,3.70
2023-02-06T06:50:08.779Z,3.70
2023-02-06T06:57:32.744Z,3.60
2023-02-06T07:02:28.319Z,3.60
2023-02-06T07:07:22.490Z,3.50
2023-02-06T07:26:58.786Z,3.70
2023-02-06T07:58:53.626Z,3.80
2023-02-06T08:01:22.213Z,3.80
2023-02-06T08:03:50.750Z,3.70
2023-02-06T08:06:17.849Z,3.90
2023-02-06T08:11:16.048Z,3.50
2023-02-06T08:13:43.810Z,3.50
2023-02-06T08:16:22.039Z,3.40
2023-02-06T08:18:49.290Z,3.40
2023-02-06T08:21:22.199Z,3.40
2023-02-06T08:23:54.809Z,3.40
2023-02-06T08:28:50.325Z,3.60
2023-02-06T08:31:20.535Z,3.60
2023-02-06T08:36:15.475Z,3.80
2023-02-06T08:41:22.095Z,3.90
2023-02-06T08:43:50.057Z,4.00
2023-02-06T08:46:18.862Z,4.00
2023-02-06T08:48:46.428Z,3.90
2023-02-06T08:53:40.740Z,3.80
2023-02-06T08:56:10.158Z,3.80
2023-02-06T09:01:14.265Z,4.00
2023-02-06T09:06:11.786Z,4.10
2023-02-06T09:11:11.678Z,4.20
2023-02-06T09:16:07.160Z,4.30
2023-02-06T09:18:34.509Z,4.40
2023-02-06T09:21:11.432Z,4.30
2023-02-06T09:23:43.877Z,4.20
2023-02-06T09:26:16.336Z,4.20
2023-02-06T09:31:11.043Z,4.30
2023-02-06T09:33:38.823Z,4.30
2023-02-06T09:36:09.411Z,4.30
2023-02-06T09:38:38.074Z,4.90
2023-02-06T09:41:27.140Z,4.30
2023-02-06T09:44:08.078Z,4.30
2023-02-06T09:46:48.628Z,4.10
2023-02-06T09:49:24.825Z,4.20
2023-02-06T09:52:05.902Z,4.30
2023-02-06T09:54:55.429Z,4.20
2023-02-06T09:57:53.394Z,4.20
2023-02-06T10:03:18.070Z,4.10
2023-02-06T10:08:35.991Z,4.10
2023-02-06T10:11:10.193Z,4.10
2023-02-06T10:13:52.022Z,4.20
2023-02-06T10:16:53.120Z,4.20
2023-02-06T10:19:32.697Z,7.80
2023-02-06T10:22:04.753Z,4.30
2023-02-06T10:24:56.124Z,4.30
2023-02-06T10:32:39.422Z,4.20
2023-02-06T10:35:22.170Z,4.10
2023-02-06T10:38:15.873Z,4.10
2023-02-06T10:41:07.944Z,7.60
2023-02-06T10:43:59.838Z,4.10
2023-02-06T10:46:48.324Z,4.00
2023-02-06T10:49:38.678Z,4.00
2023-02-06T10:52:27.584Z,4.10
2023-02-06T10:55:00.224Z,4.00
2023-02-06T10:57:30.871Z,4.20
2023-02-06T11:00:03.507Z,4.20
2023-02-06T11:02:43.338Z,4.20
2023-02-06T11:05:16.000Z,4.30
2023-02-06T11:07:46.990Z,4.30
2023-02-06T11:10:19.084Z,4.40
2023-02-06T11:13:13.805Z,4.30
2023-02-06T11:15:44.436Z,4.40
2023-02-06T11:18:17.353Z,4.40
2023-02-06T11:20:46.054Z,4.40
2023-02-06T11:23:24.976Z,4.50
2023-02-06T11:26:14.023Z,4.40
2023-02-06T11:28:55.790Z,4.40
2023-02-06T11:31:44.825Z,4.30
2023-02-06T11:34:58.360Z,4.40
2023-02-06T11:37:35.696Z,4.40
2023-02-06T11:40:17.742Z,4.40
2023-02-06T11:42:46.482Z,4.40
2023-02-06T11:45:25.745Z,4.40
2023-02-06T11:50:34.461Z,4.40
2023-02-06T11:53:30.631Z,4.40
2023-02-06T11:56:18.585Z,4.50
2023-02-06T11:58:46.142Z,4.60
2023-02-06T12:01:20.945Z,4.60
2023-02-06T12:03:50.536Z,4.50
2023-02-06T12:06:30.137Z,4.50
2023-02-06T12:09:01.846Z,4.40
2023-02-06T12:11:35.484Z,4.40
2023-02-06T12:14:09.263Z,4.40
2023-02-06T12:16:39.541Z,4.50
2023-02-06T12:19:13.771Z,4.50
2023-02-06T12:21:58.266Z,4.50
2023-02-06T12:24:44.300Z,4.40
2023-02-06T12:27:39.075Z,4.30
2023-02-06T12:30:26.048Z,4.00
2023-02-06T12:33:03.286Z,4.20
2023-02-06T12:35:43.821Z,4.10
2023-02-06T12:38:26.197Z,4.10
2023-02-06T12:41:06.821Z,4.00
2023-02-06T12:43:35.668Z,4.10
2023-02-06T12:46:16.213Z,4.20
2023-02-06T12:49:19.881Z,4.20
2023-02-06T12:51:59.257Z,4.30
2023-02-06T12:54:39.117Z,4.30
2023-02-06T12:57:20.071Z,4.30
2023-02-06T13:00:14.021Z,4.30
2023-02-06T13:03:23.061Z,4.30
2023-02-06T13:06:12.520Z,4.40
2023-02-06T13:08:47.303Z,4.40
2023-02-06T13:11:35.038Z,4.70
2023-02-06T13:14:29.257Z,4.80
2023-02-06T13:17:11.778Z,4.90
2023-02-06T13:19:41.474Z,5.00
2023-02-06T13:24:36.450Z,5.20
2023-02-06T13:27:09.547Z,5.30
2023-02-06T13:29:38.660Z,5.30
2023-02-06T13:32:21.605Z,5.50
2023-02-06T13:35:10.225Z,5.50
2023-02-06T13:37:38.437Z,5.40
2023-02-06T13:40:23.345Z,5.40
2023-02-06T13:45:35.136Z,5.30
2023-02-06T13:48:05.231Z,5.30
2023-02-06T13:51:04.952Z,5.30
2023-02-06T13:53:55.238Z,5.30
2023-02-06T13:58:55.711Z,5.20
2023-02-06T14:01:28.006Z,5.40
2023-02-06T14:03:56.219Z,5.40
2023-02-06T14:06:35.946Z,5.40
2023-02-06T14:10:07.092Z,5.40
2023-02-06T14:12:48.586Z,5.40
2023-02-06T14:15:36.999Z,5.50
2023-02-06T14:18:36.136Z,5.50
2023-02-06T14:21:30.682Z,5.50
2023-02-06T14:24:36.246Z,5.50
2023-02-06T14:27:17.049Z,5.40
2023-02-06T14:29:57.394Z,5.60
2023-02-06T14:32:41.413Z,5.60
2023-02-06T14:35:26.080Z,5.60
2023-02-06T14:38:34.648Z,5.70
2023-02-06T14:43:35.168Z,5.80
2023-02-06T14:46:08.475Z,5.80
2023-02-06T14:48:51.873Z,5.80
2023-02-06T14:51:29.373Z,5.90
2023-02-06T14:54:01.412Z,5.80
2023-02-06T14:56:29.866Z,5.80
2023-02-06T15:01:27.541Z,5.70
2023-02-06T15:04:15.901Z,5.70
2023-02-06T15:06:50.776Z,5.60
2023-02-06T15:09:29.717Z,5.60
2023-02-06T15:11:59.461Z,5.50
2023-02-06T15:14:29.236Z,5.40
2023-02-06T15:17:00.761Z,5.40
2023-02-06T15:19:29.982Z,5.30
2023-02-06T15:22:01.281Z,5.20
2023-02-06T15:25:10.089Z,5.30
2023-02-06T15:27:38.588Z,5.20
2023-02-06T15:30:25.710Z,5.20
2023-02-06T15:32:54.298Z,5.20
2023-02-06T15:35:28.731Z,5.10
2023-02-06T15:37:56.728Z,5.10
2023-02-06T15:40:31.604Z,5.60
2023-02-06T15:42:59.123Z,5.00
2023-02-06T15:45:31.550Z,4.90
2023-02-06T15:48:07.238Z,4.90
2023-02-06T15:50:34.158Z,4.90
2023-02-06T15:55:35.995Z,4.80
2023-02-06T15:58:04.828Z,4.80
2023-02-06T16:00:33.888Z,4.70
2023-02-06T16:03:07.488Z,4.70
2023-02-06T16:05:41.544Z,4.60
2023-02-06T16:08:17.688Z,4.60
2023-02-06T16:10:49.700Z,4.50
2023-02-06T16:13:21.275Z,4.60
2023-02-06T16:16:11.650Z,4.60
2023-02-06T16:18:39.910Z,4.60
2023-02-06T16:21:15.675Z,4.50
2023-02-06T16:23:47.768Z,4.60
2023-02-06T16:26:21.585Z,4.50
2023-02-06T16:28:54.804Z,4.50
2023-02-06T16:33:51.070Z,4.50
2023-02-06T16:36:19.539Z,4.50
2023-02-06T16:41:38.754Z,4.40
2023-02-06T16:44:13.831Z,4.40
2023-02-06T16:49:21.920Z,4.40
2023-02-06T16:51:51.498Z,4.30
2023-02-06T16:54:25.805Z,4.30
2023-02-06T16:56:54.237Z,4.30
2023-02-06T17:14:05.999Z,4.00
2023-02-06T17:21:32.484Z,4.00
2023-02-06T17:24:00.353Z,3.90
2023-02-06T17:36:22.267Z,3.90
2023-02-06T17:56:09.392Z,3.30
2023-02-06T18:05:58.899Z,3.30
2023-02-06T18:13:21.180Z,1.70
2023-02-06T18:15:53.012Z,3.10
2023-02-06T18:18:20.218Z,3.10
2023-02-06T18:23:14.619Z,3.00
2023-02-06T18:25:43.513Z,2.90
2023-02-06T18:28:13.696Z,2.90
2023-02-06T18:30:41.838Z,2.80
2023-02-06T18:33:09.345Z,2.90
2023-02-06T18:35:40.403Z,2.70
2023-02-06T18:40:41.108Z,2.70
2023-02-06T18:45:37.678Z,2.30
2023-02-06T18:48:07.045Z,2.50
2023-02-06T18:50:35.483Z,2.50
2023-02-06T19:05:19.227Z,2.60
2023-02-06T19:07:53.265Z,2.50
2023-02-06T19:10:21.439Z,2.50
2023-02-06T19:15:15.786Z,2.40
2023-02-06T19:17:43.750Z,2.60
2023-02-06T19:20:11.281Z,2.50
2023-02-06T19:22:38.620Z,2.50
2023-02-06T19:25:10.235Z,2.50
2023-02-06T19:30:07.632Z,2.60
2023-02-06T19:44:54.795Z,2.40
2023-02-06T19:49:52.563Z,2.30
2023-02-06T19:52:20.292Z,2.30
2023-02-06T20:02:12.731Z,2.30
2023-02-06T20:09:34.059Z,2.20
2023-02-06T20:19:25.857Z,2.00
2023-02-06T20:21:56.688Z,2.00
2023-02-06T20:24:26.616Z,1.90
2023-02-06T20:26:56.511Z,1.90
2023-02-06T20:29:32.718Z,1.90
2023-02-06T20:32:00.804Z,1.80
2023-02-06T20:34:28.666Z,1.70
2023-02-06T20:39:24.286Z,1.80
2023-02-06T20:44:20.113Z,1.70
2023-02-06T20:46:47.942Z,1.80
2023-02-06T20:49:21.713Z,1.60
2023-02-06T20:51:49.143Z,1.60
2023-02-06T20:54:16.988Z,1.60
2023-02-06T20:59:15.931Z,1.40
2023-02-06T21:04:11.520Z,1.20
2023-02-06T21:09:07.116Z,1.10
2023-02-06T21:11:38.462Z,1.10
2023-02-06T21:14:06.357Z,1.00
2023-02-06T21:16:34.046Z,1.50
2023-02-06T21:19:02.922Z,1.00
2023-02-06T21:26:25.393Z,0.90
2023-02-06T21:28:52.766Z,0.80
2023-02-06T21:31:23.470Z,0.80
2023-02-06T21:33:51.638Z,0.70
2023-02-06T21:36:20.932Z,0.80
2023-02-06T21:41:17.465Z,0.70
2023-02-06T21:43:44.779Z,-1.30
2023-02-06T21:48:40.449Z,0.60
2023-02-06T21:51:13.438Z,0.60
2023-02-06T21:53:41.468Z,0.50
2023-02-06T21:56:17.465Z,0.50
2023-02-06T21:58:45.029Z,0.50
2023-02-06T22:01:24.108Z,0.60
2023-02-06T22:06:19.913Z,0.60
2023-02-06T22:08:51.317Z,0.70
2023-02-06T22:11:26.950Z,0.70
2023-02-06T22:13:57.165Z,0.60
2023-02-06T22:16:24.612Z,0.60
2023-02-06T22:18:51.762Z,0.40
2023-02-06T22:21:20.914Z,0.50
2023-02-06T22:23:50.466Z,0.40
2023-02-06T22:26:19.223Z,0.30
2023-02-06T22:28:46.671Z,0.40
2023-02-06T22:31:23.319Z,0.40
2023-02-06T22:33:50.824Z,0.40
2023-02-06T22:36:20.408Z,0.30
2023-02-06T22:38:48.062Z,2.10
2023-02-06T22:41:16.579Z,0.20
2023-02-06T22:43:44.807Z,0.20
2023-02-06T22:46:22.148Z,0.30
2023-02-06T22:48:48.881Z,0.30
2023-02-06T22:51:15.903Z,0.30
2023-02-06T22:53:42.839Z,0.30
2023-02-06T22:56:27.380Z,0.30
2023-02-06T22:59:11.199Z,0.30
2023-02-06T23:01:41.920Z,0.20
2023-02-06T23:04:12.810Z,0.10
2023-02-06T23:06:40.805Z,0.10
2023-02-06T23:09:09.274Z,0.10
2023-02-06T23:14:05.091Z,0.10
2023-02-06T23:16:33.732Z,-0.90
2023-02-06T23:19:04.340Z,0.00
2023-02-06T23:21:32.614Z,0.00
2023-02-06T23:26:28.414Z,0.20
2023-02-06T23:29:00.272Z,0.00
2023-02-06T23:31:27.911Z,0.00
2023-02-06T23:33:55.798Z,0.00
2023-02-06T23:36:24.652Z,0.00
2023-02-06T23:38:51.924Z,-0.10
2023-02-06T23:41:21.579Z,0.00
2023-02-06T23:44:08.067Z,-1.90
2023-02-06T23:46:37.288Z,0.00
2023-02-06T23:49:04.871Z,-0.10
2023-02-06T23:56:29.424Z,-0.10
2023-02-06T23:58:57.204Z,-0.20
